Time;durP1;ratioP1;P1;durP2;ratioP2;P2;SDS_P1;SDS_P2;PMS_P1;PMS_P2;Temp;Humidity;BMP_temperature;BMP_pressure;BME280_temperature;BME280_humidity;BME280_pressure;Samples;Min_cycle;Max_cycle;Signal;HPM_P1;HPM_P2
2023/01/23 00:01:37;;;;;;;;;;;;;;;1.14;79.54;103419.82;106653;1267;61243;-84
2023/01/23 00:04:04;;;;;;;;;;;;;;;1.12;79.26;103420.13;106673;1267;124597;-83
2023/01/23 00:06:32;;;;;;;;;;;;;;;1.07;79.11;103423.38;106590;1272;72911;-82
2023/01/23 00:09:00;;;;;;;;;;;;;;;1.03;79.13;103422.20;106522;1271;125340;-82
2023/01/23 00:11:28;;;;;;;;;;;;;;;1.04;79.11;103423.66;106661;1269;71499;-82
2023/01/23 00:13:56;;;;;;;;;;;;;;;1.03;79.03;103419.61;107042;1267;61170;-82
2023/01/23 00:16:23;;;;;;;;;;;;;;;1.02;78.97;103421.09;107144;1268;124784;-83
2023/01/23 00:18:50;;;;;;;;;;;;;;;1.03;79.10;103418.73;107091;1267;74817;-83
2023/01/23 00:21:18;;;;;;;;;;;;;;;1.02;78.98;103419.21;106994;1267;125482;-83
2023/01/23 00:23:46;;;;;;;;;;;;;;;1.02;79.05;103423.45;106723;1267;72650;-84
2023/01/23 00:26:15;;;;;;;;;;;;;;;1.01;78.96;103427.91;106614;1268;60741;-83
2023/01/23 00:28:43;;;;;;;;;;;;;;;1.02;78.97;103425.54;106547;1268;124638;-84
2023/01/23 00:31:16;;;;;;;;;;;;;;;1.05;78.97;103425.75;106619;1267;72936;-84
2023/01/23 00:33:53;;;;;;;;;;;;;;;1.08;78.95;103425.16;106565;1270;124321;-84
2023/01/23 00:36:20;;;;;;;;;;;;;;;1.08;78.89;103430.92;106759;1266;72741;-84
2023/01/23 00:38:48;;;;;;;;;;;;;;;1.07;78.82;103431.48;106930;1266;124102;-84
2023/01/23 00:41:15;;;;;;;;;;;;;;;1.05;78.74;103430.77;107378;1267;59654;-84
2023/01/23 00:43:43;;;;;;;;;;;;;;;1.03;78.84;103431.70;107154;1267;74843;-84
2023/01/23 00:46:10;;;;;;;;;;;;;;;1.02;78.78;103432.46;106655;1266;124501;-84
2023/01/23 00:49:28;;;;;;;;;;;;;;;;;;;;;
2023/01/23 00:52:40;;;;;;;;;;;;;;;1.02;78.99;103436.45;106010;1273;125275;-88
2023/01/23 00:55:13;;;;;;;;;;;;;;;1.03;78.95;103432.55;106176;1275;61423;-84
2023/01/23 00:57:40;;;;;;;;;;;;;;;1.03;78.92;103430.34;106127;1270;124722;-84
2023/01/23 01:00:08;;;;;;;;;;;;;;;1.04;78.98;103431.69;106364;1270;65950;-84
2023/01/23 01:02:35;;;;;;;;;;;;;;;1.07;79.03;103434.64;106237;1270;72421;-84
2023/01/23 01:05:02;;;;;;;;;;;;;;;1.12;79.14;103433.72;106070;1276;125165;-84
2023/01/23 01:07:29;;;;;;;;;;;;;;;1.15;79.10;103436.28;106193;1270;59714;-84
2023/01/23 01:10:03;;;;;;;;;;;;;;;1.16;79.14;103437.17;106371;1270;125220;-84
2023/01/23 01:12:30;;;;;;;;;;;;;;;1.14;79.03;103437.39;106366;1270;66973;-84
2023/01/23 01:14:57;;;;;;;;;;;;;;;1.14;79.05;103437.95;106387;1271;125624;-84
2023/01/23 01:17:25;;;;;;;;;;;;;;;1.16;78.99;103438.85;107439;1270;61575;-84
2023/01/23 01:19:52;;;;;;;;;;;;;;;1.18;78.91;103442.86;106720;1270;61448;-84
2023/01/23 01:22:19;;;;;;;;;;;;;;;1.19;79.10;103439.27;105914;1279;125313;-84
2023/01/23 01:24:47;;;;;;;;;;;;;;;1.18;78.93;103439.89;106221;1276;66975;-84
2023/01/23 01:27:27;;;;;;;;;;;;;;;1.20;79.00;103443.02;106242;1271;124750;-84
2023/01/23 01:29:56;;;;;;;;;;;;;;;1.20;78.96;103440.83;106513;1267;61176;-82
2023/01/23 01:32:24;;;;;;;;;;;;;;;1.21;78.89;103441.63;106871;1267;61260;-83
2023/01/23 01:34:51;;;;;;;;;;;;;;;1.20;78.78;103441.90;106527;1269;124306;-83
2023/01/23 01:37:21;;;;;;;;;;;;;;;1.19;79.03;103442.77;106537;1266;64721;-83
2023/01/23 01:39:54;;;;;;;;;;;;;;;1.22;78.96;103449.98;106573;1270;123988;-83
2023/01/23 01:42:21;;;;;;;;;;;;;;;1.23;78.94;103453.23;106421;1271;61381;-83
2023/01/23 01:44:57;;;;;;;;;;;;;;;1.22;79.16;103453.36;106574;1269;124809;-84
2023/01/23 01:47:24;;;;;;;;;;;;;;;1.17;78.72;103450.91;106749;1267;74572;-85
2023/01/23 01:50:10;;;;;;;;;;;;;;;1.12;78.72;103451.23;106514;1267;65822;-85
2023/01/23 01:52:43;;;;;;;;;;;;;;;1.08;78.67;103456.98;106479;1270;125426;-85
2023/01/23 01:55:10;;;;;;;;;;;;;;;1.03;78.41;103461.19;106710;1271;59724;-85
2023/01/23 01:57:39;;;;;;;;;;;;;;;1.00;78.33;103462.36;106595;1269;124647;-85
2023/01/23 02:00:19;;;;;;;;;;;;;;;1.01;78.38;103459.87;106550;1268;75334;-85
2023/01/23 02:02:57;;;;;;;;;;;;;;;1.03;78.40;103463.45;106303;1267;125361;-84
2023/01/23 02:05:25;;;;;;;;;;;;;;;1.07;78.52;103463.63;106702;1268;72614;-83
2023/01/23 02:07:53;;;;;;;;;;;;;;;1.09;78.45;103468.00;106732;1267;59737;-83
2023/01/23 02:10:20;;;;;;;;;;;;;;;1.11;78.27;103473.75;106641;1266;124763;-83
2023/01/23 02:12:48;;;;;;;;;;;;;;;1.13;78.35;103467.20;106928;1268;73896;-85
2023/01/23 02:15:21;;;;;;;;;;;;;;;1.15;78.48;103470.02;106845;1267;124955;-83
2023/01/23 02:18:09;;;;;;;;;;;;;;;1.17;78.49;103469.73;106740;1266;71099;-85
2023/01/23 02:20:37;;;;;;;;;;;;;;;1.20;78.30;103472.50;106619;1267;61376;-85
2023/01/23 02:23:23;;;;;;;;;;;;;;;1.18;78.13;103473.95;106896;1266;124042;-85
2023/01/23 02:25:59;;;;;;;;;;;;;;;1.15;78.06;103473.66;107028;1267;73146;-83
2023/01/23 02:28:38;;;;;;;;;;;;;;;1.12;77.86;103473.52;107151;1267;124224;-84
2023/01/23 02:31:05;;;;;;;;;;;;;;;1.13;78.02;103479.84;108164;1267;72523;-83
2023/01/23 02:33:32;;;;;;;;;;;;;;;1.15;78.03;103482.00;108324;1270;59309;-83
2023/01/23 02:36:04;;;;;;;;;;;;;;;1.16;77.89;103481.77;108335;1267;59261;-84
2023/01/23 02:38:36;;;;;;;;;;;;;;;1.15;77.80;103487.52;107898;1270;73207;-83
2023/01/23 02:41:06;;;;;;;;;;;;;;;1.13;77.69;103482.69;106549;1269;125140;-85
2023/01/23 02:43:40;;;;;;;;;;;;;;;1.12;77.63;103482.81;106709;1270;72666;-84
2023/01/23 02:46:08;;;;;;;;;;;;;;;1.13;77.68;103482.92;106671;1267;123941;-84
2023/01/23 02:48:42;;;;;;;;;;;;;;;1.14;77.80;103483.73;106627;1267;60179;-84
2023/01/23 02:51:09;;;;;;;;;;;;;;;1.14;77.77;103487.08;106459;1265;124794;-83
2023/01/23 02:53:50;;;;;;;;;;;;;;;1.10;77.65;103484.56;106470;1270;66107;-85
2023/01/23 02:56:17;;;;;;;;;;;;;;;1.05;77.56;103479.16;106596;1267;72048;-86
2023/01/23 03:01:32;;;;;;;;;;;;;;;1.01;77.57;103475.45;106725;1266;59581;-83
2023/01/23 03:04:12;;;;;;;;;;;;;;;0.94;77.35;103476.98;106285;1273;125217;-85
2023/01/23 03:06:41;;;;;;;;;;;;;;;0.93;77.66;103477.51;106533;1267;65682;-84
2023/01/23 03:09:14;;;;;;;;;;;;;;;0.95;77.67;103471.87;106277;1267;125736;-83
2023/01/23 03:11:42;;;;;;;;;;;;;;;0.96;77.65;103474.83;106340;1272;59625;-83
2023/01/23 03:14:15;;;;;;;;;;;;;;;0.99;77.62;103479.33;106445;1266;61260;-83
2023/01/23 03:16:45;;;;;;;;;;;;;;;1.01;77.72;103484.13;106405;1267;125050;-83
2023/01/23 03:19:12;;;;;;;;;;;;;;;1.03;77.66;103492.83;106595;1267;66167;-84
2023/01/23 03:21:39;;;;;;;;;;;;;;;1.04;77.55;103495.46;106907;1270;125035;-84
2023/01/23 03:24:07;;;;;;;;;;;;;;;1.05;77.45;103491.40;106898;1270;59810;-83
2023/01/23 03:26:36;;;;;;;;;;;;;;;1.03;77.54;103495.91;106600;1267;61212;-84
2023/01/23 03:31:49;;;;;;;;;;;;;;;1.02;77.33;103495.14;106684;1267;67666;-83
2023/01/23 03:34:20;;;;;;;;;;;;;;;1.04;77.48;103495.65;106717;1268;124618;-84
2023/01/23 03:36:48;;;;;;;;;;;;;;;1.06;77.54;103498.27;108318;1266;59419;-83
2023/01/23 03:42:01;;;;;;;;;;;;;;;1.03;77.48;103499.36;107122;1267;73209;-84
2023/01/23 03:44:29;;;;;;;;;;;;;;;1.03;77.36;103499.02;107049;1269;65662;-83
2023/01/23 03:46:56;;;;;;;;;;;;;;;1.02;77.28;103499.73;106752;1269;124515;-84
2023/01/23 03:49:23;;;;;;;;;;;;;;;1.00;77.27;103499.92;106838;1267;61269;-83
2023/01/23 03:51:56;;;;;;;;;;;;;;;1.02;77.37;103504.98;106744;1270;124871;-85
2023/01/23 03:54:33;;;;;;;;;;;;;;;1.01;77.21;103506.09;106644;1267;73703;-85
2023/01/23 03:57:07;;;;;;;;;;;;;;;1.01;77.26;103503.06;106506;1269;125007;-85
2023/01/23 03:59:40;;;;;;;;;;;;;;;1.01;77.38;103504.36;106397;1267;72652;-85
2023/01/23 04:02:08;;;;;;;;;;;;;;;1.01;77.31;103505.39;106389;1267;61378;-84
2023/01/23 04:04:41;;;;;;;;;;;;;;;1.01;77.05;103501.69;106523;1267;124824;-85
2023/01/23 04:07:14;;;;;;;;;;;;;;;1.01;77.23;103506.05;106428;1267;75773;-85
2023/01/23 04:09:47;;;;;;;;;;;;;;;1.02;77.31;103509.45;106736;1267;124671;-85
2023/01/23 04:12:16;;;;;;;;;;;;;;;1.04;77.26;103513.35;106445;1266;72787;-85
2023/01/23 04:15:01;;;;;;;;;;;;;;;1.06;77.18;103517.66;106453;1267;61214;-85
2023/01/23 04:17:30;;;;;;;;;;;;;;;1.10;77.29;103516.56;106452;1265;61317;-85
2023/01/23 04:20:12;;;;;;;;;;;;;;;1.13;77.26;103516.32;106335;1266;74761;-86
2023/01/23 04:22:39;;;;;;;;;;;;;;;1.13;77.16;103515.50;106346;1267;124703;-85
2023/01/23 04:25:06;;;;;;;;;;;;;;;1.11;77.02;103517.67;106822;1267;72732;-85
2023/01/23 04:27:41;;;;;;;;;;;;;;;1.09;77.02;103518.02;106579;1267;124968;-84
2023/01/23 04:30:08;;;;;;;;;;;;;;;1.08;76.80;103518.89;106876;1267;61173;-84
2023/01/23 04:32:35;;;;;;;;;;;;;;;1.04;77.01;103519.02;106674;1271;73289;-84
2023/01/23 04:35:26;;;;;;;;;;;;;;;1.01;76.89;103517.66;106870;1266;64863;-85
2023/01/23 04:37:55;;;;;;;;;;;;;;;0.96;76.82;103522.27;106554;1271;72679;-85
2023/01/23 04:40:22;;;;;;;;;;;;;;;0.91;76.93;103516.92;106547;1267;124766;-85
2023/01/23 04:42:51;;;;;;;;;;;;;;;0.93;77.03;103523.08;106595;1266;61281;-85
2023/01/23 04:45:34;;;;;;;;;;;;;;;0.93;77.01;103522.98;106333;1266;124822;-85
2023/01/23 04:48:01;;;;;;;;;;;;;;;0.95;76.95;103525.80;106568;1267;67123;-84
2023/01/23 04:50:40;;;;;;;;;;;;;;;0.93;76.84;103528.72;106887;1270;72568;-83
2023/01/23 04:53:10;;;;;;;;;;;;;;;0.92;76.96;103529.36;106808;1267;125403;-84
2023/01/23 04:55:38;;;;;;;;;;;;;;;0.96;77.16;103533.02;106605;1267;61252;-84
2023/01/23 04:58:10;;;;;;;;;;;;;;;0.99;77.24;103535.05;106678;1270;124692;-83
2023/01/23 05:00:49;;;;;;;;;;;;;;;0.98;76.87;103537.95;106682;1267;66822;-83
2023/01/23 05:03:17;;;;;;;;;;;;;;;0.98;76.80;103535.33;106795;1267;124488;-83
2023/01/23 05:05:52;;;;;;;;;;;;;;;0.98;76.72;103536.39;106764;1270;61205;-83
2023/01/23 05:08:25;;;;;;;;;;;;;;;0.98;76.81;103540.15;106737;1267;59736;-84
2023/01/23 05:10:52;;;;;;;;;;;;;;;0.96;76.63;103537.48;106350;1279;124562;-84
2023/01/23 05:13:19;;;;;;;;;;;;;;;0.95;76.74;103541.77;106479;1270;67092;-84
2023/01/23 05:15:46;;;;;;;;;;;;;;;0.93;76.53;103544.29;106603;1267;124341;-83
2023/01/23 05:18:15;;;;;;;;;;;;;;;0.91;76.48;103546.34;106537;1270;61989;-84
2023/01/23 05:20:42;;;;;;;;;;;;;;;0.94;76.45;103551.43;106616;1267;60747;-84
2023/01/23 05:23:09;;;;;;;;;;;;;;;0.92;76.37;103550.89;106473;1267;124490;-84
2023/01/23 05:25:36;;;;;;;;;;;;;;;0.93;76.45;103555.80;106935;1267;67051;-83
2023/01/23 05:28:03;;;;;;;;;;;;;;;0.92;76.32;103557.81;107795;1267;124681;-85
2023/01/23 05:30:30;;;;;;;;;;;;;;;0.89;76.25;103554.73;106570;1267;61193;-85
2023/01/23 05:33:01;;;;;;;;;;;;;;;0.92;76.50;103559.38;106467;1267;61317;-85
2023/01/23 05:35:41;;;;;;;;;;;;;;;0.94;76.22;103561.36;106588;1267;73986;-85
2023/01/23 05:38:08;;;;;;;;;;;;;;;0.94;76.31;103561.02;106669;1269;67240;-84
2023/01/23 05:40:35;;;;;;;;;;;;;;;0.94;76.33;103561.23;106555;1267;124038;-84
2023/01/23 05:43:12;;;;;;;;;;;;;;;0.95;76.38;103561.08;106443;1265;61240;-86
2023/01/23 05:45:45;;;;;;;;;;;;;;;0.95;76.55;103561.48;106371;1267;124475;-84
2023/01/23 05:48:12;;;;;;;;;;;;;;;0.97;76.44;103565.19;106826;1267;73718;-85
2023/01/23 05:50:40;;;;;;;;;;;;;;;0.95;76.40;103566.45;106772;1268;65806;-85
2023/01/23 05:53:07;;;;;;;;;;;;;;;0.93;76.30;103565.22;106513;1265;124157;-83
2023/01/23 05:55:36;;;;;;;;;;;;;;;0.93;76.15;103567.11;106666;1267;59854;-86
2023/01/23 05:58:03;;;;;;;;;;;;;;;0.94;76.22;103570.17;106426;1267;124791;-85
2023/01/23 06:00:30;;;;;;;;;;;;;;;0.96;76.21;103570.88;106745;1267;73102;-83
2023/01/23 06:02:57;;;;;;;;;;;;;;;0.97;76.22;103569.31;106970;1269;65945;-83
2023/01/23 06:05:26;;;;;;;;;;;;;;;0.99;76.27;103575.37;106604;1272;124163;-85
2023/01/23 06:07:53;;;;;;;;;;;;;;;0.99;76.09;103575.48;106520;1268;59856;-86
2023/01/23 06:10:20;;;;;;;;;;;;;;;0.98;76.33;103579.80;106560;1265;124648;-84
2023/01/23 06:13:09;;;;;;;;;;;;;;;1.00;76.17;103581.88;106722;1266;74752;-84
2023/01/23 06:15:36;;;;;;;;;;;;;;;1.02;76.16;103586.96;106677;1268;124942;-83
2023/01/23 06:18:06;;;;;;;;;;;;;;;1.02;76.37;103586.96;106720;1267;73212;-85
2023/01/23 06:20:39;;;;;;;;;;;;;;;1.04;76.08;103582.67;106854;1267;61291;-85
2023/01/23 06:23:12;;;;;;;;;;;;;;;1.09;76.38;103580.38;106485;1267;125887;-86
2023/01/23 06:25:39;;;;;;;;;;;;;;;1.13;76.48;103578.57;106651;1267;74708;-85
2023/01/23 06:28:07;;;;;;;;;;;;;;;1.18;76.50;103582.41;106905;1267;125250;-84
2023/01/23 06:30:49;;;;;;;;;;;;;;;1.25;76.54;103584.69;106579;1267;71609;-85
2023/01/23 06:33:17;;;;;;;;;;;;;;;1.27;76.32;103591.19;106677;1267;125441;-84
2023/01/23 06:35:44;;;;;;;;;;;;;;;1.24;76.04;103595.32;106635;1267;61336;-85
2023/01/23 06:38:18;;;;;;;;;;;;;;;1.20;76.16;103595.60;106704;1267;74749;-86
2023/01/23 06:40:45;;;;;;;;;;;;;;;1.18;76.04;103599.86;107063;1266;124894;-86
2023/01/23 06:43:12;;;;;;;;;;;;;;;1.15;75.89;103607.02;107011;1267;71143;-82
2023/01/23 06:45:42;;;;;;;;;;;;;;;1.12;75.68;103605.98;106550;1267;124831;-82
2023/01/23 06:48:29;;;;;;;;;;;;;;;1.13;75.78;103606.66;106708;1267;61161;-84
2023/01/23 06:50:58;;;;;;;;;;;;;;;1.15;75.87;103611.01;106787;1267;74752;-83
2023/01/23 06:53:26;;;;;;;;;;;;;;;1.11;75.60;103611.84;106765;1266;123848;-81
2023/01/23 06:56:05;;;;;;;;;;;;;;;1.08;75.57;103615.06;106661;1267;73454;-83
2023/01/23 06:58:32;;;;;;;;;;;;;;;1.07;75.46;103620.70;106511;1267;124455;-82
2023/01/23 07:01:03;;;;;;;;;;;;;;;1.11;75.77;103621.50;106677;1267;60217;-83
2023/01/23 07:03:32;;;;;;;;;;;;;;;1.13;75.76;103620.84;106766;1267;124927;-82
2023/01/23 07:06:05;;;;;;;;;;;;;;;1.15;75.92;103620.33;107018;1266;66637;-82
2023/01/23 07:08:39;;;;;;;;;;;;;;;1.18;75.76;103631.17;106552;1270;71431;-82
2023/01/23 07:11:10;;;;;;;;;;;;;;;1.19;75.87;103635.25;106545;1270;124373;-81
2023/01/23 07:13:37;;;;;;;;;;;;;;;1.18;75.96;103638.94;106740;1267;60285;-84
2023/01/23 07:16:04;;;;;;;;;;;;;;;1.19;75.82;103637.98;107009;1266;124779;-84
2023/01/23 07:18:32;;;;;;;;;;;;;;;1.18;75.82;103641.95;106920;1267;64887;-83
2023/01/23 07:20:59;;;;;;;;;;;;;;;1.23;75.97;103644.23;106976;1267;72225;-84
2023/01/23 07:23:26;;;;;;;;;;;;;;;1.27;76.00;103646.25;106505;1266;124813;-85
2023/01/23 07:25:59;;;;;;;;;;;;;;;1.31;76.04;103650.34;106347;1270;61293;-84
2023/01/23 07:28:35;;;;;;;;;;;;;;;1.36;76.04;103654.61;106500;1267;124909;-84
2023/01/23 07:31:08;;;;;;;;;;;;;;;1.40;75.78;103659.58;106559;1272;65814;-85
2023/01/23 07:33:46;;;;;;;;;;;;;;;1.43;75.95;103655.41;106411;1267;125049;-84
2023/01/23 07:36:14;;;;;;;;;;;;;;;1.49;75.99;103658.76;106602;1266;61252;-84
2023/01/23 07:38:41;;;;;;;;;;;;;;;1.53;75.89;103660.86;106498;1267;61425;-84
2023/01/23 07:41:28;;;;;;;;;;;;;;;1.57;75.83;103662.24;106333;1267;123650;-84
2023/01/23 07:43:55;;;;;;;;;;;;;;;1.57;75.61;103653.24;106657;1266;66819;-84
2023/01/23 07:46:24;;;;;;;;;;;;;;;1.62;75.74;103652.55;106602;1266;125156;-84
2023/01/23 07:48:51;;;;;;;;;;;;;;;1.66;75.82;103648.02;106712;1267;61302;-84
2023/01/23 07:51:21;;;;;;;;;;;;;;;1.70;75.26;103655.22;106248;1267;125055;-83
2023/01/23 07:53:53;;;;;;;;;;;;;;;1.72;75.29;103653.64;106786;1267;73461;-83
2023/01/23 07:56:21;;;;;;;;;;;;;;;1.74;75.01;103647.70;106904;1265;66795;-83
2023/01/23 07:58:56;;;;;;;;;;;;;;;1.78;75.07;103649.59;106464;1267;124028;-85
2023/01/23 08:01:31;;;;;;;;;;;;;;;1.81;75.04;103651.88;106575;1267;61285;-84
2023/01/23 08:03:58;;;;;;;;;;;;;;;1.82;74.91;103661.97;106713;1265;123958;-83
2023/01/23 08:06:33;;;;;;;;;;;;;;;1.80;74.80;103663.98;106980;1267;73100;-85
2023/01/23 08:09:14;;;;;;;;;;;;;;;1.78;74.96;103661.54;106800;1267;67598;-87
2023/01/23 08:11:44;;;;;;;;;;;;;;;1.77;74.76;103662.27;106717;1267;71246;-82
2023/01/23 08:14:12;;;;;;;;;;;;;;;1.73;74.90;103659.33;106888;1267;61371;-83
2023/01/23 08:16:39;;;;;;;;;;;;;;;1.73;74.88;103659.63;106968;1267;124106;-82
2023/01/23 08:19:07;;;;;;;;;;;;;;;1.74;74.78;103661.13;106887;1265;75803;-82
2023/01/23 08:21:40;;;;;;;;;;;;;;;1.73;74.65;103657.59;106482;1267;124532;-87
2023/01/23 08:24:10;;;;;;;;;;;;;;;1.70;74.60;103654.83;106787;1267;71415;-82
2023/01/23 08:26:42;;;;;;;;;;;;;;;1.71;74.67;103652.85;107025;1270;59794;-86
2023/01/23 08:29:11;;;;;;;;;;;;;;;1.70;74.72;103650.66;106832;1265;124417;-82
2023/01/23 08:31:40;;;;;;;;;;;;;;;1.70;74.77;103654.27;106605;1266;264327;-84
2023/01/23 08:34:14;;;;;;;;;;;;;;;1.70;74.72;103653.95;106568;1267;124155;-83
2023/01/23 08:36:41;;;;;;;;;;;;;;;1.72;74.72;103653.36;106713;1266;71054;-83
2023/01/23 08:39:08;;;;;;;;;;;;;;;1.75;74.83;103652.77;106694;1266;61381;-83
2023/01/23 08:41:35;;;;;;;;;;;;;;;1.74;74.63;103655.27;106804;1267;123950;-82
2023/01/23 08:44:03;;;;;;;;;;;;;;;1.75;74.66;103657.39;106909;1266;73240;-82
2023/01/23 08:46:30;;;;;;;;;;;;;;;1.78;74.67;103659.45;107003;1266;124480;-83
2023/01/23 08:48:57;;;;;;;;;;;;;;;1.77;74.77;103664.43;106873;1266;72510;-83
2023/01/23 08:51:26;;;;;;;;;;;;;;;1.75;74.99;103665.79;106682;1265;61336;-83
2023/01/23 08:54:02;;;;;;;;;;;;;;;1.79;75.11;103668.08;106672;1267;61276;-83
2023/01/23 08:56:34;;;;;;;;;;;;;;;1.82;75.23;103676.69;107133;1267;75268;-83
2023/01/23 08:59:12;;;;;;;;;;;;;;;1.84;75.41;103680.48;107052;1267;124799;-83
2023/01/23 09:01:56;;;;;;;;;;;;;;;1.89;75.60;103687.13;106526;1266;73537;-83
2023/01/23 09:04:25;;;;;;;;;;;;;;;1.92;75.56;103688.94;106471;1266;125285;-83
2023/01/23 09:06:59;;;;;;;;;;;;;;;1.97;75.75;103685.91;106662;1266;61861;-83
2023/01/23 09:09:33;;;;;;;;;;;;;;;2.00;75.66;103690.88;106866;1266;125021;-83
2023/01/23 09:12:00;;;;;;;;;;;;;;;2.01;75.76;103695.17;106746;1266;65803;-83
2023/01/23 09:14:27;;;;;;;;;;;;;;;2.03;75.77;103699.22;106910;1267;72233;-83
2023/01/23 09:16:58;;;;;;;;;;;;;;;2.06;75.96;103701.75;107037;1266;125351;-85
2023/01/23 09:19:39;;;;;;;;;;;;;;;2.09;75.94;103701.80;107722;1267;59802;-84
2023/01/23 09:22:06;;;;;;;;;;;;;;;2.14;75.95;103697.61;106436;1268;124908;-84
2023/01/23 09:24:33;;;;;;;;;;;;;;;2.19;76.00;103699.66;106729;1266;66909;-82
2023/01/23 09:27:00;;;;;;;;;;;;;;;2.23;76.00;103700.60;106938;1267;73751;-84
2023/01/23 09:29:32;;;;;;;;;;;;;;;2.24;75.82;103696.00;106882;1267;124671;-83
2023/01/23 09:31:59;;;;;;;;;;;;;;;2.25;75.93;103699.34;108024;1267;60198;-84
2023/01/23 09:34:28;;;;;;;;;;;;;;;2.26;75.72;103698.67;106558;1269;124744;-83
2023/01/23 09:36:55;;;;;;;;;;;;;;;2.25;75.66;103698.73;106783;1267;64746;-83
2023/01/23 09:39:22;;;;;;;;;;;;;;;2.28;75.90;103700.46;106605;1267;124152;-84
2023/01/23 09:41:49;;;;;;;;;;;;;;;2.33;75.84;103703.63;106787;1267;61219;-84
2023/01/23 09:44:32;;;;;;;;;;;;;;;2.38;75.89;103702.35;106763;1270;61250;-84
2023/01/23 09:47:11;;;;;;;;;;;;;;;2.38;75.59;103702.05;106715;1266;126358;-87
2023/01/23 09:49:44;;;;;;;;;;;;;;;2.38;75.63;103711.88;106682;1267;68045;-83
2023/01/23 09:52:11;;;;;;;;;;;;;;;2.37;75.60;103711.95;106459;1266;126281;-84
2023/01/23 09:54:45;;;;;;;;;;;;;;;2.33;75.42;103711.03;106370;1266;59561;-83
2023/01/23 09:57:18;;;;;;;;;;;;;;;2.27;75.37;103710.45;106520;1267;61201;-85
2023/01/23 10:00:13;;;;;;;;;;;;;;;2.22;75.33;103712.80;106354;1267;123803;-85
2023/01/23 10:02:46;;;;;;;;;;;;;;;2.18;75.36;103710.30;106222;1269;66977;-84
2023/01/23 10:05:38;;;;;;;;;;;;;;;2.16;75.37;103707.66;106301;1266;124423;-84
2023/01/23 10:08:22;;;;;;;;;;;;;;;2.11;75.46;103703.59;106483;1267;61151;-85
2023/01/23 10:11:10;;;;;;;;;;;;;;;2.10;75.47;103704.33;106411;1267;124793;-84
2023/01/23 10:13:48;;;;;;;;;;;;;;;2.09;75.41;103703.34;106356;1265;75042;-85
2023/01/23 10:16:46;;;;;;;;;;;;;;;2.05;75.26;103704.98;106367;1266;124019;-86
2023/01/23 10:19:41;;;;;;;;;;;;;;;2.06;75.54;103702.08;106360;1270;71285;-83
2023/01/23 10:22:28;;;;;;;;;;;;;;;2.02;75.45;103695.48;106230;1267;125831;-85
2023/01/23 10:25:13;;;;;;;;;;;;;;;2.00;75.46;103689.84;106318;1266;60484;-85
2023/01/23 10:27:50;;;;;;;;;;;;;;;2.01;75.54;103690.64;106379;1266;125042;-84
2023/01/23 10:30:29;;;;;;;;;;;;;;;2.03;75.55;103694.88;106201;1267;67101;-85
2023/01/23 10:33:17;;;;;;;;;;;;;;;2.02;75.62;103696.04;106649;1267;71448;-85
2023/01/23 10:35:52;;;;;;;;;;;;;;;2.04;75.36;103698.77;106762;1267;125512;-85
2023/01/23 10:38:36;;;;;;;;;;;;;;;2.02;75.25;103701.14;106260;1266;61195;-85
2023/01/23 10:41:22;;;;;;;;;;;;;;;2.02;75.40;103694.56;106255;1267;124918;-84
2023/01/23 10:44:31;;;;;;;;;;;;;;;2.03;75.29;103693.64;106489;1267;65682;-85
2023/01/23 10:47:03;;;;;;;;;;;;;;;2.01;75.07;103693.27;106264;1267;124997;-88
2023/01/23 10:49:40;;;;;;;;;;;;;;;1.99;75.07;103695.64;106241;1268;61339;-85
2023/01/23 10:52:36;;;;;;;;;;;;;;;2.01;75.11;103691.82;106283;1267;125182;-85
2023/01/23 10:55:18;;;;;;;;;;;;;;;2.04;75.21;103694.46;106799;1267;75401;-85
2023/01/23 10:57:52;;;;;;;;;;;;;;;2.11;75.47;103688.52;106586;1267;124880;-85
2023/01/23 11:00:42;;;;;;;;;;;;;;;2.17;75.23;103682.02;106244;1269;71457;-86
2023/01/23 11:03:31;;;;;;;;;;;;;;;2.20;75.02;103680.54;106512;1266;59788;-86
2023/01/23 11:06:15;;;;;;;;;;;;;;;2.22;75.03;103682.00;106499;1267;61352;-87
2023/01/23 11:09:16;;;;;;;;;;;;;;;2.28;75.13;103685.91;106373;1267;73259;-85
2023/01/23 11:12:00;;;;;;;;;;;;;;;2.30;74.78;103688.34;106283;1267;124133;-86
2023/01/23 11:14:27;;;;;;;;;;;;;;;2.29;74.78;103686.36;106473;1267;71572;-85
2023/01/23 11:17:11;;;;;;;;;;;;;;;2.31;74.81;103685.41;106213;1267;124144;-86
2023/01/23 11:19:38;;;;;;;;;;;;;;;2.35;74.73;103688.42;106368;1266;61179;-85
2023/01/23 11:22:06;;;;;;;;;;;;;;;2.37;74.75;103692.56;106296;1266;124085;-86
2023/01/23 11:24:40;;;;;;;;;;;;;;;2.37;74.56;103694.58;106467;1267;65828;-86
2023/01/23 11:27:23;;;;;;;;;;;;;;;2.34;74.58;103696.94;106393;1267;71409;-85
2023/01/23 11:30:16;;;;;;;;;;;;;;;2.36;74.52;103701.33;106591;1265;123970;-84
2023/01/23 11:33:13;;;;;;;;;;;;;;;2.28;74.19;103703.48;106693;1266;61157;-84
2023/01/23 11:36:12;;;;;;;;;;;;;;;2.21;74.35;103696.23;106428;1267;124177;-86
2023/01/23 11:38:57;;;;;;;;;;;;;;;2.15;74.45;103695.81;106665;1267;68169;-84
2023/01/23 11:44:41;;;;;;;;;;;;;;;2.21;74.75;103687.95;106471;1270;61368;-87
2023/01/23 11:47:40;;;;;;;;;;;;;;;2.21;74.44;103687.09;106435;1267;123955;-86
2023/01/23 11:50:37;;;;;;;;;;;;;;;2.22;74.60;103688.26;106703;1267;72539;-83
2023/01/23 11:53:05;;;;;;;;;;;;;;;2.28;74.64;103691.10;106962;1267;124385;-83
2023/01/23 11:55:44;;;;;;;;;;;;;;;2.32;74.79;103691.86;106905;1270;71464;-83
2023/01/23 11:58:23;;;;;;;;;;;;;;;2.36;74.81;103693.14;108239;1266;125458;-84
2023/01/23 12:00:59;;;;;;;;;;;;;;;2.39;74.75;103693.49;106857;1266;61171;-84
2023/01/23 12:03:45;;;;;;;;;;;;;;;2.40;74.58;103695.35;106844;1265;74767;-84
2023/01/23 12:06:13;;;;;;;;;;;;;;;2.42;74.33;103695.48;106678;1269;66865;-83
2023/01/23 12:08:42;;;;;;;;;;;;;;;2.39;74.24;103694.36;106694;1267;72786;-84
2023/01/23 12:11:24;;;;;;;;;;;;;;;2.36;74.18;103694.02;106449;1272;124232;-84
2023/01/23 12:14:13;;;;;;;;;;;;;;;2.31;74.13;103698.20;106848;1267;61333;-84
2023/01/23 12:16:58;;;;;;;;;;;;;;;2.32;74.23;103702.16;106638;1267;124160;-83
2023/01/23 12:19:30;;;;;;;;;;;;;;;2.27;74.01;103700.14;106656;1265;65929;-83
2023/01/23 12:22:10;;;;;;;;;;;;;;;2.23;73.99;103700.11;106702;1266;125306;-83
2023/01/23 12:24:49;;;;;;;;;;;;;;;2.25;73.97;103697.69;107270;1267;59755;-82
2023/01/23 12:27:26;;;;;;;;;;;;;;;2.26;74.08;103694.76;106499;1270;60946;-83
2023/01/23 12:30:00;;;;;;;;;;;;;;;2.25;74.08;103697.23;106453;1267;125200;-84
2023/01/23 12:32:46;;;;;;;;;;;;;;;2.32;74.34;103695.64;106727;1266;66913;-84
2023/01/23 12:35:26;;;;;;;;;;;;;;;2.38;74.33;103692.73;106638;1266;125018;-84
2023/01/23 12:38:03;;;;;;;;;;;;;;;2.43;74.40;103690.45;106622;1266;61298;-84
2023/01/23 12:40:37;;;;;;;;;;;;;;;2.43;73.87;103689.10;106688;1267;124724;-84
2023/01/23 12:43:11;;;;;;;;;;;;;;;2.38;73.90;103692.63;106741;1265;73388;-84
2023/01/23 12:45:45;;;;;;;;;;;;;;;2.37;73.72;103696.51;106386;1266;124896;-84
2023/01/23 12:48:32;;;;;;;;;;;;;;;2.36;73.77;103695.91;106746;1267;73228;-85
2023/01/23 12:51:27;;;;;;;;;;;;;;;2.39;73.66;103697.25;106346;1266;61332;-84
2023/01/23 12:53:55;;;;;;;;;;;;;;;2.39;73.65;103697.32;106235;1266;124800;-84
2023/01/23 12:56:29;;;;;;;;;;;;;;;2.41;73.87;103687.56;106647;1266;73660;-84
2023/01/23 12:59:03;;;;;;;;;;;;;;;2.51;73.81;103695.08;106422;1267;125532;-84
2023/01/23 13:01:52;;;;;;;;;;;;;;;2.52;73.72;103692.64;106588;1266;72562;-84
2023/01/23 13:04:21;;;;;;;;;;;;;;;2.53;73.59;103696.23;107037;1266;125464;-84
2023/01/23 13:06:53;;;;;;;;;;;;;;;2.49;73.27;103700.75;106834;1266;59648;-84
2023/01/23 13:09:34;;;;;;;;;;;;;;;2.38;73.00;103700.98;106728;1266;74816;-84
2023/01/23 13:12:20;;;;;;;;;;;;;;;2.27;72.81;103704.26;106811;1266;66559;-83
2023/01/23 13:14:50;;;;;;;;;;;;;;;2.20;72.79;103704.47;106510;1267;72836;-84
2023/01/23 13:17:36;;;;;;;;;;;;;;;2.21;72.98;103713.10;106403;1267;124175;-84